sensor_id;sensor_type;location;lat;lon;timestamp;P1;durP1;ratioP1;P2;durP2;ratioP2
13415;SDS011;6779;50.150;8.680;2022-10-31T00:01:57;14.33;;;11.00;;
13415;SDS011;6779;50.150;8.680;2022-10-31T00:04:23;17.47;;;9.97;;
13415;SDS011;6779;50.150;8.680;2022-10-31T00:06:48;18.77;;;10.67;;
13415;SDS011;6779;50.150;8.680;2022-10-31T00:09:14;14.77;;;9.77;;
13415;SDS011;6779;50.150;8.680;2022-10-31T00:11:39;13.47;;;10.03;;
13415;SDS011;6779;50.150;8.680;2022-10-31T00:14:05;15.90;;;10.77;;
13415;SDS011;6779;50.150;8.680;2022-10-31T00:16:30;16.23;;;10.00;;
13415;SDS011;6779;50.150;8.680;2022-10-31T00:18:57;16.83;;;10.70;;
13415;SDS011;6779;50.150;8.680;2022-10-31T00:21:25;14.30;;;9.67;;
13415;SDS011;6779;50.150;8.680;2022-10-31T00:23:50;18.03;;;10.30;;
13415;SDS011;6779;50.150;8.680;2022-10-31T00:26:16;18.80;;;9.50;;
13415;SDS011;6779;50.150;8.680;2022-10-31T00:28:43;13.80;;;10.13;;
13415;SDS011;6779;50.150;8.680;2022-10-31T00:31:09;13.90;;;9.30;;
13415;SDS011;6779;50.150;8.680;2022-10-31T00:33:36;16.80;;;9.50;;
13415;SDS011;6779;50.150;8.680;2022-10-31T00:36:03;15.20;;;9.37;;
13415;SDS011;6779;50.150;8.680;2022-10-31T00:38:29;15.97;;;9.60;;
13415;SDS011;6779;50.150;8.680;2022-10-31T00:40:55;14.60;;;10.07;;
13415;SDS011;6779;50.150;8.680;2022-10-31T00:43:21;15.07;;;9.40;;
13415;SDS011;6779;50.150;8.680;2022-10-31T00:45:46;14.43;;;9.60;;
13415;SDS011;6779;50.150;8.680;2022-10-31T00:48:12;14.43;;;9.03;;
13415;SDS011;6779;50.150;8.680;2022-10-31T00:50:38;15.57;;;10.20;;
13415;SDS011;6779;50.150;8.680;2022-10-31T00:53:04;15.97;;;10.10;;
13415;SDS011;6779;50.150;8.680;2022-10-31T00:55:30;12.70;;;9.17;;
13415;SDS011;6779;50.150;8.680;2022-10-31T00:57:55;12.77;;;8.63;;
13415;SDS011;6779;50.150;8.680;2022-10-31T01:00:21;17.10;;;9.03;;
13415;SDS011;6779;50.150;8.680;2022-10-31T01:02:46;18.83;;;9.27;;
13415;SDS011;6779;50.150;8.680;2022-10-31T01:05:12;14.13;;;8.90;;
13415;SDS011;6779;50.150;8.680;2022-10-31T01:07:38;13.80;;;9.13;;
13415;SDS011;6779;50.150;8.680;2022-10-31T01:10:05;11.70;;;8.63;;
13415;SDS011;6779;50.150;8.680;2022-10-31T01:12:38;13.13;;;8.53;;
13415;SDS011;6779;50.150;8.680;2022-10-31T01:15:08;14.83;;;8.77;;
13415;SDS011;6779;50.150;8.680;2022-10-31T01:17:35;11.17;;;8.03;;
13415;SDS011;6779;50.150;8.680;2022-10-31T01:20:00;14.20;;;7.70;;
13415;SDS011;6779;50.150;8.680;2022-10-31T01:22:27;11.97;;;8.97;;
13415;SDS011;6779;50.150;8.680;2022-10-31T01:24:52;11.90;;;8.10;;
13415;SDS011;6779;50.150;8.680;2022-10-31T01:27:18;12.17;;;8.50;;
13415;SDS011;6779;50.150;8.680;2022-10-31T01:29:43;10.83;;;8.13;;
13415;SDS011;6779;50.150;8.680;2022-10-31T01:32:09;13.33;;;8.83;;
13415;SDS011;6779;50.150;8.680;2022-10-31T01:34:34;14.70;;;9.23;;
13415;SDS011;6779;50.150;8.680;2022-10-31T01:37:00;12.87;;;7.90;;
13415;SDS011;6779;50.150;8.680;2022-10-31T01:39:26;11.77;;;8.30;;
13415;SDS011;6779;50.150;8.680;2022-10-31T01:41:52;15.80;;;10.07;;
13415;SDS011;6779;50.150;8.680;2022-10-31T01:46:45;15.10;;;8.60;;
13415;SDS011;6779;50.150;8.680;2022-10-31T01:49:21;13.53;;;8.80;;
13415;SDS011;6779;50.150;8.680;2022-10-31T01:51:48;15.97;;;8.43;;
13415;SDS011;6779;50.150;8.680;2022-10-31T01:54:25;15.80;;;8.80;;
13415;SDS011;6779;50.150;8.680;2022-10-31T01:56:56;14.27;;;8.30;;
13415;SDS011;6779;50.150;8.680;2022-10-31T01:59:24;13.27;;;7.43;;
13415;SDS011;6779;50.150;8.680;2022-10-31T02:01:53;10.93;;;6.70;;
13415;SDS011;6779;50.150;8.680;2022-10-31T02:04:19;36.27;;;8.40;;
13415;SDS011;6779;50.150;8.680;2022-10-31T02:06:48;15.17;;;8.17;;
13415;SDS011;6779;50.150;8.680;2022-10-31T02:09:18;11.90;;;7.63;;
13415;SDS011;6779;50.150;8.680;2022-10-31T02:11:48;9.80;;;8.03;;
13415;SDS011;6779;50.150;8.680;2022-10-31T02:14:17;13.57;;;7.23;;
13415;SDS011;6779;50.150;8.680;2022-10-31T02:16:43;11.93;;;7.60;;
13415;SDS011;6779;50.150;8.680;2022-10-31T02:19:09;14.67;;;8.37;;
13415;SDS011;6779;50.150;8.680;2022-10-31T02:21:57;8.50;;;7.30;;
13415;SDS011;6779;50.150;8.680;2022-10-31T02:24:55;9.33;;;7.33;;
13415;SDS011;6779;50.150;8.680;2022-10-31T02:33:45;13.30;;;7.83;;
13415;SDS011;6779;50.150;8.680;2022-10-31T02:36:35;14.13;;;7.50;;
13415;SDS011;6779;50.150;8.680;2022-10-31T02:39:17;13.57;;;7.87;;
13415;SDS011;6779;50.150;8.680;2022-10-31T02:41:52;13.20;;;8.33;;
13415;SDS011;6779;50.150;8.680;2022-10-31T02:46:58;14.07;;;7.73;;
13415;SDS011;6779;50.150;8.680;2022-10-31T02:51:56;11.70;;;7.37;;
13415;SDS011;6779;50.150;8.680;2022-10-31T02:54:22;12.27;;;7.57;;
13415;SDS011;6779;50.150;8.680;2022-10-31T02:56:49;11.07;;;7.37;;
13415;SDS011;6779;50.150;8.680;2022-10-31T02:59:19;11.40;;;7.13;;
13415;SDS011;6779;50.150;8.680;2022-10-31T03:04:55;11.83;;;7.33;;
13415;SDS011;6779;50.150;8.680;2022-10-31T03:13:02;11.23;;;7.40;;
13415;SDS011;6779;50.150;8.680;2022-10-31T03:15:37;10.23;;;7.33;;
13415;SDS011;6779;50.150;8.680;2022-10-31T03:18:09;10.87;;;7.80;;
13415;SDS011;6779;50.150;8.680;2022-10-31T03:20:50;13.40;;;8.60;;
13415;SDS011;6779;50.150;8.680;2022-10-31T03:23:21;12.17;;;7.83;;
13415;SDS011;6779;50.150;8.680;2022-10-31T03:25:49;11.53;;;8.07;;
13415;SDS011;6779;50.150;8.680;2022-10-31T03:28:16;12.57;;;7.90;;
13415;SDS011;6779;50.150;8.680;2022-10-31T03:30:46;10.03;;;7.63;;
13415;SDS011;6779;50.150;8.680;2022-10-31T03:33:16;9.83;;;7.53;;
13415;SDS011;6779;50.150;8.680;2022-10-31T03:35:47;11.63;;;7.13;;
13415;SDS011;6779;50.150;8.680;2022-10-31T03:38:15;10.57;;;7.03;;
13415;SDS011;6779;50.150;8.680;2022-10-31T03:40:41;9.90;;;7.50;;
13415;SDS011;6779;50.150;8.680;2022-10-31T03:43:10;10.50;;;8.03;;
13415;SDS011;6779;50.150;8.680;2022-10-31T03:45:41;10.37;;;7.67;;
13415;SDS011;6779;50.150;8.680;2022-10-31T03:48:10;11.33;;;7.83;;
13415;SDS011;6779;50.150;8.680;2022-10-31T03:51:19;9.13;;;7.07;;
13415;SDS011;6779;50.150;8.680;2022-10-31T03:56:02;9.03;;;6.70;;
13415;SDS011;6779;50.150;8.680;2022-10-31T03:58:39;12.77;;;6.97;;
13415;SDS011;6779;50.150;8.680;2022-10-31T04:01:12;12.53;;;8.00;;
13415;SDS011;6779;50.150;8.680;2022-10-31T04:03:41;10.13;;;6.93;;
13415;SDS011;6779;50.150;8.680;2022-10-31T04:06:09;12.13;;;7.63;;
13415;SDS011;6779;50.150;8.680;2022-10-31T04:08:44;11.80;;;7.47;;
13415;SDS011;6779;50.150;8.680;2022-10-31T04:11:14;13.17;;;7.83;;
13415;SDS011;6779;50.150;8.680;2022-10-31T04:13:43;9.57;;;7.23;;
13415;SDS011;6779;50.150;8.680;2022-10-31T04:16:10;12.07;;;8.23;;
13415;SDS011;6779;50.150;8.680;2022-10-31T04:18:37;11.20;;;7.57;;
13415;SDS011;6779;50.150;8.680;2022-10-31T04:21:04;12.23;;;7.57;;
13415;SDS011;6779;50.150;8.680;2022-10-31T04:23:31;10.67;;;7.67;;
13415;SDS011;6779;50.150;8.680;2022-10-31T04:25:58;11.07;;;7.63;;
13415;SDS011;6779;50.150;8.680;2022-10-31T04:28:24;9.47;;;7.00;;
13415;SDS011;6779;50.150;8.680;2022-10-31T04:30:49;10.57;;;7.97;;
13415;SDS011;6779;50.150;8.680;2022-10-31T04:33:15;12.73;;;7.80;;
13415;SDS011;6779;50.150;8.680;2022-10-31T04:35:41;15.47;;;7.37;;
13415;SDS011;6779;50.150;8.680;2022-10-31T04:38:06;12.07;;;7.60;;
13415;SDS011;6779;50.150;8.680;2022-10-31T04:40:32;13.23;;;7.70;;
13415;SDS011;6779;50.150;8.680;2022-10-31T04:42:57;11.17;;;7.77;;
13415;SDS011;6779;50.150;8.680;2022-10-31T04:45:23;11.37;;;7.03;;
13415;SDS011;6779;50.150;8.680;2022-10-31T04:47:48;11.20;;;7.13;;
13415;SDS011;6779;50.150;8.680;2022-10-31T04:50:14;9.07;;;6.80;;
13415;SDS011;6779;50.150;8.680;2022-10-31T04:52:40;13.23;;;7.00;;
13415;SDS011;6779;50.150;8.680;2022-10-31T04:55:06;9.33;;;7.20;;
13415;SDS011;6779;50.150;8.680;2022-10-31T04:57:39;13.27;;;7.80;;
13415;SDS011;6779;50.150;8.680;2022-10-31T05:00:09;9.37;;;6.80;;
13415;SDS011;6779;50.150;8.680;2022-10-31T05:02:50;11.93;;;7.27;;
13415;SDS011;6779;50.150;8.680;2022-10-31T05:05:18;9.47;;;6.70;;
13415;SDS011;6779;50.150;8.680;2022-10-31T05:07:45;12.03;;;7.17;;
13415;SDS011;6779;50.150;8.680;2022-10-31T05:10:13;12.87;;;7.37;;
13415;SDS011;6779;50.150;8.680;2022-10-31T05:12:47;14.70;;;7.83;;
13415;SDS011;6779;50.150;8.680;2022-10-31T05:15:15;12.03;;;7.73;;
13415;SDS011;6779;50.150;8.680;2022-10-31T05:17:41;13.23;;;6.80;;
13415;SDS011;6779;50.150;8.680;2022-10-31T05:20:07;12.53;;;7.47;;
13415;SDS011;6779;50.150;8.680;2022-10-31T05:22:34;10.50;;;6.83;;
13415;SDS011;6779;50.150;8.680;2022-10-31T05:24:59;9.60;;;7.47;;
13415;SDS011;6779;50.150;8.680;2022-10-31T05:27:25;11.60;;;7.23;;
13415;SDS011;6779;50.150;8.680;2022-10-31T05:29:50;9.53;;;7.23;;
13415;SDS011;6779;50.150;8.680;2022-10-31T05:32:16;14.17;;;7.57;;
13415;SDS011;6779;50.150;8.680;2022-10-31T05:34:41;10.67;;;7.50;;
13415;SDS011;6779;50.150;8.680;2022-10-31T05:37:07;8.00;;;6.40;;
13415;SDS011;6779;50.150;8.680;2022-10-31T05:39:32;10.03;;;6.53;;
13415;SDS011;6779;50.150;8.680;2022-10-31T05:41:58;10.23;;;7.03;;
13415;SDS011;6779;50.150;8.680;2022-10-31T05:44:23;9.77;;;7.23;;
13415;SDS011;6779;50.150;8.680;2022-10-31T05:46:49;8.77;;;6.83;;
13415;SDS011;6779;50.150;8.680;2022-10-31T05:49:14;10.07;;;6.23;;
13415;SDS011;6779;50.150;8.680;2022-10-31T05:51:40;8.70;;;6.73;;
13415;SDS011;6779;50.150;8.680;2022-10-31T05:54:05;9.00;;;6.97;;
13415;SDS011;6779;50.150;8.680;2022-10-31T05:56:31;9.97;;;6.53;;
13415;SDS011;6779;50.150;8.680;2022-10-31T05:58:56;10.23;;;6.87;;
13415;SDS011;6779;50.150;8.680;2022-10-31T06:01:22;9.57;;;6.40;;
13415;SDS011;6779;50.150;8.680;2022-10-31T06:03:47;12.53;;;7.40;;
13415;SDS011;6779;50.150;8.680;2022-10-31T06:06:13;11.17;;;7.00;;
13415;SDS011;6779;50.150;8.680;2022-10-31T06:08:38;9.17;;;7.70;;
13415;SDS011;6779;50.150;8.680;2022-10-31T06:11:04;12.07;;;7.93;;
13415;SDS011;6779;50.150;8.680;2022-10-31T06:13:30;12.40;;;7.87;;
13415;SDS011;6779;50.150;8.680;2022-10-31T06:15:55;11.07;;;7.70;;
13415;SDS011;6779;50.150;8.680;2022-10-31T06:18:21;12.70;;;7.90;;
13415;SDS011;6779;50.150;8.680;2022-10-31T06:20:46;12.37;;;7.93;;
13415;SDS011;6779;50.150;8.680;2022-10-31T06:23:12;17.47;;;8.73;;
13415;SDS011;6779;50.150;8.680;2022-10-31T06:25:37;10.73;;;8.77;;
13415;SDS011;6779;50.150;8.680;2022-10-31T06:28:03;11.30;;;8.47;;
13415;SDS011;6779;50.150;8.680;2022-10-31T06:30:29;13.47;;;8.33;;
13415;SDS011;6779;50.150;8.680;2022-10-31T06:32:54;14.97;;;8.77;;
13415;SDS011;6779;50.150;8.680;2022-10-31T06:35:26;33.93;;;11.97;;
13415;SDS011;6779;50.150;8.680;2022-10-31T06:37:52;15.90;;;8.87;;
13415;SDS011;6779;50.150;8.680;2022-10-31T06:40:18;13.80;;;8.57;;
13415;SDS011;6779;50.150;8.680;2022-10-31T06:42:44;12.23;;;7.83;;
13415;SDS011;6779;50.150;8.680;2022-10-31T06:45:09;11.73;;;8.67;;
13415;SDS011;6779;50.150;8.680;2022-10-31T06:47:35;12.47;;;8.60;;
13415;SDS011;6779;50.150;8.680;2022-10-31T06:50:00;13.87;;;8.50;;
13415;SDS011;6779;50.150;8.680;2022-10-31T06:52:26;13.50;;;7.80;;
13415;SDS011;6779;50.150;8.680;2022-10-31T06:54:51;13.03;;;8.73;;
13415;SDS011;6779;50.150;8.680;2022-10-31T06:57:17;11.67;;;7.30;;
13415;SDS011;6779;50.150;8.680;2022-10-31T06:59:42;12.13;;;7.70;;
13415;SDS011;6779;50.150;8.680;2022-10-31T07:02:09;15.00;;;8.30;;
13415;SDS011;6779;50.150;8.680;2022-10-31T07:04:35;13.03;;;8.83;;
13415;SDS011;6779;50.150;8.680;2022-10-31T07:07:00;13.47;;;8.77;;
13415;SDS011;6779;50.150;8.680;2022-10-31T07:09:26;18.03;;;9.23;;
13415;SDS011;6779;50.150;8.680;2022-10-31T07:11:52;14.77;;;8.53;;
13415;SDS011;6779;50.150;8.680;2022-10-31T07:14:18;14.37;;;9.20;;
13415;SDS011;6779;50.150;8.680;2022-10-31T07:16:43;15.83;;;9.37;;
13415;SDS011;6779;50.150;8.680;2022-10-31T07:19:13;18.70;;;9.80;;
13415;SDS011;6779;50.150;8.680;2022-10-31T07:21:39;15.03;;;8.70;;
13415;SDS011;6779;50.150;8.680;2022-10-31T07:24:04;15.70;;;9.23;;
13415;SDS011;6779;50.150;8.680;2022-10-31T07:26:30;15.10;;;9.30;;
13415;SDS011;6779;50.150;8.680;2022-10-31T07:28:55;15.93;;;9.57;;
13415;SDS011;6779;50.150;8.680;2022-10-31T07:31:21;15.73;;;9.57;;
13415;SDS011;6779;50.150;8.680;2022-10-31T07:33:46;15.00;;;10.07;;
13415;SDS011;6779;50.150;8.680;2022-10-31T07:36:12;16.80;;;9.40;;
13415;SDS011;6779;50.150;8.680;2022-10-31T07:38:37;13.43;;;8.77;;
13415;SDS011;6779;50.150;8.680;2022-10-31T07:41:03;13.03;;;8.03;;
13415;SDS011;6779;50.150;8.680;2022-10-31T07:43:29;13.63;;;8.50;;
13415;SDS011;6779;50.150;8.680;2022-10-31T07:45:54;13.50;;;8.67;;
13415;SDS011;6779;50.150;8.680;2022-10-31T07:48:20;20.47;;;9.23;;
13415;SDS011;6779;50.150;8.680;2022-10-31T07:50:46;14.33;;;9.17;;
13415;SDS011;6779;50.150;8.680;2022-10-31T07:53:12;13.73;;;8.17;;
13415;SDS011;6779;50.150;8.680;2022-10-31T07:55:39;11.33;;;7.83;;
13415;SDS011;6779;50.150;8.680;2022-10-31T07:58:11;14.70;;;7.53;;
13415;SDS011;6779;50.150;8.680;2022-10-31T08:00:39;13.83;;;7.73;;
13415;SDS011;6779;50.150;8.680;2022-10-31T08:03:07;11.83;;;7.53;;
13415;SDS011;6779;50.150;8.680;2022-10-31T08:05:34;14.40;;;7.80;;
13415;SDS011;6779;50.150;8.680;2022-10-31T08:08:01;10.90;;;7.97;;
13415;SDS011;6779;50.150;8.680;2022-10-31T08:10:28;11.90;;;7.57;;
13415;SDS011;6779;50.150;8.680;2022-10-31T08:12:57;12.43;;;6.93;;
13415;SDS011;6779;50.150;8.680;2022-10-31T08:15:24;12.77;;;7.47;;
13415;SDS011;6779;50.150;8.680;2022-10-31T08:17:50;10.63;;;7.03;;
13415;SDS011;6779;50.150;8.680;2022-10-31T08:20:16;10.70;;;7.23;;
13415;SDS011;6779;50.150;8.680;2022-10-31T08:22:41;8.77;;;7.20;;
13415;SDS011;6779;50.150;8.680;2022-10-31T08:25:07;8.67;;;6.87;;
13415;SDS011;6779;50.150;8.680;2022-10-31T08:27:33;9.53;;;7.00;;
13415;SDS011;6779;50.150;8.680;2022-10-31T08:29:58;11.67;;;8.07;;
13415;SDS011;6779;50.150;8.680;2022-10-31T08:32:24;9.97;;;6.80;;
13415;SDS011;6779;50.150;8.680;2022-10-31T08:34:50;17.23;;;8.50;;
13415;SDS011;6779;50.150;8.680;2022-10-31T08:37:15;12.30;;;7.73;;
13415;SDS011;6779;50.150;8.680;2022-10-31T08:39:44;14.40;;;8.20;;
13415;SDS011;6779;50.150;8.680;2022-10-31T08:42:11;10.37;;;7.27;;
13415;SDS011;6779;50.150;8.680;2022-10-31T08:44:36;16.73;;;9.03;;
13415;SDS011;6779;50.150;8.680;2022-10-31T08:47:02;10.77;;;8.70;;
13415;SDS011;6779;50.150;8.680;2022-10-31T08:49:27;13.63;;;8.30;;
13415;SDS011;6779;50.150;8.680;2022-10-31T08:51:53;11.80;;;8.43;;
13415;SDS011;6779;50.150;8.680;2022-10-31T08:54:18;16.30;;;9.50;;
13415;SDS011;6779;50.150;8.680;2022-10-31T08:56:44;12.70;;;8.33;;
13415;SDS011;6779;50.150;8.680;2022-10-31T08:59:09;16.07;;;8.90;;
13415;SDS011;6779;50.150;8.680;2022-10-31T09:01:35;15.57;;;9.53;;
13415;SDS011;6779;50.150;8.680;2022-10-31T09:04:00;15.07;;;9.87;;
13415;SDS011;6779;50.150;8.680;2022-10-31T09:06:26;14.30;;;9.83;;
13415;SDS011;6779;50.150;8.680;2022-10-31T09:08:51;15.07;;;9.23;;
13415;SDS011;6779;50.150;8.680;2022-10-31T09:11:17;13.57;;;8.80;;
13415;SDS011;6779;50.150;8.680;2022-10-31T09:13:42;16.47;;;8.60;;
13415;SDS011;6779;50.150;8.680;2022-10-31T09:16:08;14.30;;;9.33;;
13415;SDS011;6779;50.150;8.680;2022-10-31T09:18:33;17.00;;;9.87;;
13415;SDS011;6779;50.150;8.680;2022-10-31T09:20:59;18.57;;;10.03;;
13415;SDS011;6779;50.150;8.680;2022-10-31T09:23:25;16.30;;;9.70;;
13415;SDS011;6779;50.150;8.680;2022-10-31T09:25:51;14.93;;;9.90;;
13415;SDS011;6779;50.150;8.680;2022-10-31T09:28:22;12.27;;;7.80;;
13415;SDS011;6779;50.150;8.680;2022-10-31T09:30:50;12.77;;;8.80;;
13415;SDS011;6779;50.150;8.680;2022-10-31T09:33:17;17.50;;;9.03;;
13415;SDS011;6779;50.150;8.680;2022-10-31T09:35:43;17.67;;;9.70;;
13415;SDS011;6779;50.150;8.680;2022-10-31T09:38:09;12.83;;;9.77;;
13415;SDS011;6779;50.150;8.680;2022-10-31T09:40:37;11.93;;;9.93;;
13415;SDS011;6779;50.150;8.680;2022-10-31T09:46:11;14.60;;;9.47;;
13415;SDS011;6779;50.150;8.680;2022-10-31T09:49:22;15.17;;;10.17;;
13415;SDS011;6779;50.150;8.680;2022-10-31T09:54:35;16.60;;;10.20;;
13415;SDS011;6779;50.150;8.680;2022-10-31T09:57:13;16.70;;;10.30;;
13415;SDS011;6779;50.150;8.680;2022-10-31T09:59:41;19.30;;;10.90;;
13415;SDS011;6779;50.150;8.680;2022-10-31T10:04:56;14.63;;;10.70;;
13415;SDS011;6779;50.150;8.680;2022-10-31T10:10:13;20.53;;;10.30;;
13415;SDS011;6779;50.150;8.680;2022-10-31T10:15:53;20.50;;;11.63;;
13415;SDS011;6779;50.150;8.680;2022-10-31T10:30:02;20.57;;;12.20;;
13415;SDS011;6779;50.150;8.680;2022-10-31T10:32:35;21.90;;;12.17;;
13415;SDS011;6779;50.150;8.680;2022-10-31T10:35:11;19.90;;;12.03;;
13415;SDS011;6779;50.150;8.680;2022-10-31T10:37:43;20.80;;;12.03;;
13415;SDS011;6779;50.150;8.680;2022-10-31T10:40:13;19.47;;;11.90;;
13415;SDS011;6779;50.150;8.680;2022-10-31T10:48:50;20.93;;;12.17;;
13415;SDS011;6779;50.150;8.680;2022-10-31T10:51:34;16.67;;;11.37;;
13415;SDS011;6779;50.150;8.680;2022-10-31T10:54:20;20.43;;;11.87;;
13415;SDS011;6779;50.150;8.680;2022-10-31T10:59:45;17.60;;;11.57;;
13415;SDS011;6779;50.150;8.680;2022-10-31T11:02:24;16.70;;;11.90;;
13415;SDS011;6779;50.150;8.680;2022-10-31T11:04:51;18.60;;;12.37;;
13415;SDS011;6779;50.150;8.680;2022-10-31T11:07:19;16.43;;;11.00;;
13415;SDS011;6779;50.150;8.680;2022-10-31T11:09:45;19.53;;;11.70;;
13415;SDS011;6779;50.150;8.680;2022-10-31T11:12:22;16.90;;;10.60;;
13415;SDS011;6779;50.150;8.680;2022-10-31T11:15:02;19.40;;;10.83;;
13415;SDS011;6779;50.150;8.680;2022-10-31T11:17:34;16.27;;;10.60;;
13415;SDS011;6779;50.150;8.680;2022-10-31T11:22:38;16.47;;;10.73;;
13415;SDS011;6779;50.150;8.680;2022-10-31T11:25:24;17.17;;;10.37;;
13415;SDS011;6779;50.150;8.680;2022-10-31T11:28:08;14.27;;;10.67;;
13415;SDS011;6779;50.150;8.680;2022-10-31T11:30:47;14.53;;;9.50;;
13415;SDS011;6779;50.150;8.680;2022-10-31T11:33:19;15.53;;;10.10;;
13415;SDS011;6779;50.150;8.680;2022-10-31T11:35:55;15.03;;;9.20;;
13415;SDS011;6779;50.150;8.680;2022-10-31T11:38:24;16.93;;;10.60;;
13415;SDS011;6779;50.150;8.680;2022-10-31T11:40:58;19.37;;;9.93;;
13415;SDS011;6779;50.150;8.680;2022-10-31T11:43:51;13.20;;;9.63;;
13415;SDS011;6779;50.150;8.680;2022-10-31T11:46:24;13.53;;;9.60;;
13415;SDS011;6779;50.150;8.680;2022-10-31T11:48:59;14.90;;;9.67;;
13415;SDS011;6779;50.150;8.680;2022-10-31T11:51:26;17.00;;;10.13;;
13415;SDS011;6779;50.150;8.680;2022-10-31T11:53:57;14.07;;;9.47;;
13415;SDS011;6779;50.150;8.680;2022-10-31T11:56:24;17.90;;;10.10;;
13415;SDS011;6779;50.150;8.680;2022-10-31T11:58:56;13.73;;;9.87;;
13415;SDS011;6779;50.150;8.680;2022-10-31T12:01:26;14.50;;;8.77;;
13415;SDS011;6779;50.150;8.680;2022-10-31T12:06:29;13.27;;;9.10;;
13415;SDS011;6779;50.150;8.680;2022-10-31T12:08:59;16.17;;;8.77;;
13415;SDS011;6779;50.150;8.680;2022-10-31T12:11:46;16.27;;;9.70;;
13415;SDS011;6779;50.150;8.680;2022-10-31T12:25:12;12.77;;;8.30;;
13415;SDS011;6779;50.150;8.680;2022-10-31T12:30:35;11.60;;;8.93;;
13415;SDS011;6779;50.150;8.680;2022-10-31T12:38:52;12.37;;;7.90;;
13415;SDS011;6779;50.150;8.680;2022-10-31T12:41:27;15.97;;;8.33;;
13415;SDS011;6779;50.150;8.680;2022-10-31T12:44:14;15.13;;;8.87;;
13415;SDS011;6779;50.150;8.680;2022-10-31T12:47:17;14.93;;;8.77;;
13415;SDS011;6779;50.150;8.680;2022-10-31T12:49:52;10.27;;;8.80;;
13415;SDS011;6779;50.150;8.680;2022-10-31T12:52:54;15.30;;;9.00;;
13415;SDS011;6779;50.150;8.680;2022-10-31T12:58:21;11.23;;;7.30;;
13415;SDS011;6779;50.150;8.680;2022-10-31T13:01:08;11.37;;;7.07;;
13415;SDS011;6779;50.150;8.680;2022-10-31T13:03:58;11.27;;;7.07;;
13415;SDS011;6779;50.150;8.680;2022-10-31T13:06:40;9.40;;;6.20;;
13415;SDS011;6779;50.150;8.680;2022-10-31T13:09:14;12.30;;;6.83;;
13415;SDS011;6779;50.150;8.680;2022-10-31T13:11:47;13.40;;;6.83;;
13415;SDS011;6779;50.150;8.680;2022-10-31T13:16:54;11.03;;;5.97;;
13415;SDS011;6779;50.150;8.680;2022-10-31T13:19:28;11.03;;;7.00;;
13415;SDS011;6779;50.150;8.680;2022-10-31T13:22:12;11.27;;;6.43;;
13415;SDS011;6779;50.150;8.680;2022-10-31T13:24:55;9.37;;;5.90;;
13415;SDS011;6779;50.150;8.680;2022-10-31T13:30:16;8.47;;;6.57;;
13415;SDS011;6779;50.150;8.680;2022-10-31T13:35:21;10.43;;;6.20;;
13415;SDS011;6779;50.150;8.680;2022-10-31T13:38:01;13.00;;;6.23;;
13415;SDS011;6779;50.150;8.680;2022-10-31T13:40:56;14.80;;;6.43;;
13415;SDS011;6779;50.150;8.680;2022-10-31T13:46:54;10.10;;;5.87;;
13415;SDS011;6779;50.150;8.680;2022-10-31T13:48:57;13.87;;;6.63;;
13415;SDS011;6779;50.150;8.680;2022-10-31T13:51:28;12.67;;;6.20;;
13415;SDS011;6779;50.150;8.680;2022-10-31T13:53:57;12.93;;;6.50;;
13415;SDS011;6779;50.150;8.680;2022-10-31T13:56:28;11.93;;;6.33;;
13415;SDS011;6779;50.150;8.680;2022-10-31T14:01:34;11.60;;;6.20;;
13415;SDS011;6779;50.150;8.680;2022-10-31T14:04:12;17.53;;;8.20;;
13415;SDS011;6779;50.150;8.680;2022-10-31T14:09:28;7.13;;;5.50;;
13415;SDS011;6779;50.150;8.680;2022-10-31T14:12:08;11.90;;;5.67;;
13415;SDS011;6779;50.150;8.680;2022-10-31T14:14:51;11.60;;;7.07;;
13415;SDS011;6779;50.150;8.680;2022-10-31T14:17:21;10.27;;;6.13;;
13415;SDS011;6779;50.150;8.680;2022-10-31T14:22:36;10.37;;;5.97;;
13415;SDS011;6779;50.150;8.680;2022-10-31T14:28:22;11.57;;;6.53;;
13415;SDS011;6779;50.150;8.680;2022-10-31T14:30:58;11.60;;;6.80;;
13415;SDS011;6779;50.150;8.680;2022-10-31T14:33:25;12.77;;;7.10;;
13415;SDS011;6779;50.150;8.680;2022-10-31T14:36:04;12.37;;;6.20;;
13415;SDS011;6779;50.150;8.680;2022-10-31T14:38:43;10.83;;;7.13;;
13415;SDS011;6779;50.150;8.680;2022-10-31T14:49:30;12.40;;;6.70;;
13415;SDS011;6779;50.150;8.680;2022-10-31T14:51:59;11.23;;;6.13;;
13415;SDS011;6779;50.150;8.680;2022-10-31T14:54:30;11.50;;;6.30;;
13415;SDS011;6779;50.150;8.680;2022-10-31T14:57:02;11.80;;;6.87;;
13415;SDS011;6779;50.150;8.680;2022-10-31T14:59:32;11.63;;;6.30;;
13415;SDS011;6779;50.150;8.680;2022-10-31T15:02:11;11.00;;;6.10;;
13415;SDS011;6779;50.150;8.680;2022-10-31T15:04:53;9.90;;;6.80;;
13415;SDS011;6779;50.150;8.680;2022-10-31T15:07:24;12.17;;;6.47;;
13415;SDS011;6779;50.150;8.680;2022-10-31T15:09:55;15.63;;;7.10;;
13415;SDS011;6779;50.150;8.680;2022-10-31T15:12:24;11.00;;;6.37;;
13415;SDS011;6779;50.150;8.680;2022-10-31T15:14:54;12.93;;;6.70;;
13415;SDS011;6779;50.150;8.680;2022-10-31T15:17:20;10.57;;;5.97;;
13415;SDS011;6779;50.150;8.680;2022-10-31T15:19:47;11.23;;;6.73;;
13415;SDS011;6779;50.150;8.680;2022-10-31T15:22:16;9.60;;;6.00;;
13415;SDS011;6779;50.150;8.680;2022-10-31T15:24:44;11.27;;;6.37;;
13415;SDS011;6779;50.150;8.680;2022-10-31T15:27:11;14.67;;;8.17;;
13415;SDS011;6779;50.150;8.680;2022-10-31T15:29:46;9.07;;;7.30;;
13415;SDS011;6779;50.150;8.680;2022-10-31T15:32:22;12.30;;;6.73;;
13415;SDS011;6779;50.150;8.680;2022-10-31T15:34:52;13.93;;;6.90;;
13415;SDS011;6779;50.150;8.680;2022-10-31T15:37:21;12.83;;;7.10;;
13415;SDS011;6779;50.150;8.680;2022-10-31T15:39:49;11.50;;;7.00;;
13415;SDS011;6779;50.150;8.680;2022-10-31T15:42:29;13.70;;;7.53;;
13415;SDS011;6779;50.150;8.680;2022-10-31T15:45:04;16.70;;;8.07;;
13415;SDS011;6779;50.150;8.680;2022-10-31T15:47:45;11.23;;;7.27;;
13415;SDS011;6779;50.150;8.680;2022-10-31T15:50:22;13.07;;;7.60;;
13415;SDS011;6779;50.150;8.680;2022-10-31T15:53:00;16.10;;;7.63;;
13415;SDS011;6779;50.150;8.680;2022-10-31T15:55:29;12.97;;;7.70;;
13415;SDS011;6779;50.150;8.680;2022-10-31T15:57:59;12.73;;;7.90;;
13415;SDS011;6779;50.150;8.680;2022-10-31T16:00:33;11.40;;;7.73;;
13415;SDS011;6779;50.150;8.680;2022-10-31T16:03:03;16.00;;;8.47;;
13415;SDS011;6779;50.150;8.680;2022-10-31T16:05:34;13.50;;;7.67;;
13415;SDS011;6779;50.150;8.680;2022-10-31T16:08:23;12.87;;;8.20;;
13415;SDS011;6779;50.150;8.680;2022-10-31T16:10:55;12.47;;;7.97;;
13415;SDS011;6779;50.150;8.680;2022-10-31T16:13:24;20.83;;;8.67;;
13415;SDS011;6779;50.150;8.680;2022-10-31T16:16:00;11.90;;;7.83;;
13415;SDS011;6779;50.150;8.680;2022-10-31T16:18:28;12.10;;;9.03;;
13415;SDS011;6779;50.150;8.680;2022-10-31T16:21:00;12.57;;;8.00;;
13415;SDS011;6779;50.150;8.680;2022-10-31T16:23:25;11.57;;;7.20;;
13415;SDS011;6779;50.150;8.680;2022-10-31T16:25:52;11.63;;;7.37;;
13415;SDS011;6779;50.150;8.680;2022-10-31T16:28:19;11.03;;;7.50;;
13415;SDS011;6779;50.150;8.680;2022-10-31T16:30:47;12.37;;;7.90;;
13415;SDS011;6779;50.150;8.680;2022-10-31T16:33:33;17.73;;;8.17;;
13415;SDS011;6779;50.150;8.680;2022-10-31T16:38:55;11.60;;;7.13;;
13415;SDS011;6779;50.150;8.680;2022-10-31T16:41:21;17.13;;;7.77;;
13415;SDS011;6779;50.150;8.680;2022-10-31T16:43:47;14.70;;;7.40;;
13415;SDS011;6779;50.150;8.680;2022-10-31T16:46:14;11.33;;;7.13;;
13415;SDS011;6779;50.150;8.680;2022-10-31T16:48:43;12.80;;;7.00;;
13415;SDS011;6779;50.150;8.680;2022-10-31T16:51:08;12.93;;;7.80;;
13415;SDS011;6779;50.150;8.680;2022-10-31T16:53:34;11.07;;;7.47;;
13415;SDS011;6779;50.150;8.680;2022-10-31T16:56:02;11.90;;;6.97;;
13415;SDS011;6779;50.150;8.680;2022-10-31T16:58:32;13.30;;;7.27;;
13415;SDS011;6779;50.150;8.680;2022-10-31T17:00:59;11.13;;;7.60;;
13415;SDS011;6779;50.150;8.680;2022-10-31T17:03:26;14.30;;;7.93;;
13415;SDS011;6779;50.150;8.680;2022-10-31T17:05:52;15.93;;;7.50;;